Tacuru, Brazil
Current Conditions -  °F | °C
As of 12:00 AM on Saturday 25 Oct 2014 (Local Time) from SGES Reporting Station
Clear Clear  
Wind Chill: 73°   Ceiling: Unl
Heat Index: 73°   Visibility: 6mi
Dew Point: 61°   Wind: 6mph
Humidity: 65%   Direction: 30°NNE
Pressure: 29.88"   Gusts: NA
Location:  23.63°S, 55.02°W
Report Text: SGES 250300Z 03005KT CAVOK 23/16 Q1012
Loading
Personal Weather Stations






























Interactive Weather Map
Tropical Storm Tracking
New forecast layout! Learn more

10-Day Weather Forecast

Advertisements
Track Severe Weather on mobile